Time;durP1;ratioP1;P1;durP2;ratioP2;P2;SDS_P1;SDS_P2;PMS_P1;PMS_P2;Temp;Humidity;BMP_temperature;BMP_pressure;BME280_temperature;BME280_humidity;BME280_pressure;Samples;Min_cycle;Max_cycle;Signal;HPM_P1;HPM_P2
2023/09/05 00:00:02;;;;;;;6.80;5.65;;;22.80;71.40;;;;;;4174134;28;20055;-58
2023/09/05 00:02:48;;;;;;;6.05;5.47;;;22.70;71.40;;;;;;4187425;28;20503;-58
2023/09/05 00:05:31;;;;;;;6.15;5.50;;;22.70;71.50;;;;;;4187235;28;20044;-57
2023/09/05 00:08:12;;;;;;;6.07;5.25;;;22.70;71.90;;;;;;4186719;28;20510;-57
2023/09/05 00:10:53;;;;;;;;;;;22.70;72.00;;;;;;4187711;28;20146;-56
2023/09/05 00:13:34;;;;;;;6.88;5.97;;;22.70;72.10;;;;;;4186152;28;19927;-57
2023/09/05 00:16:14;;;;;;;6.05;5.47;;;22.70;72.40;;;;;;4186477;28;20055;-57
2023/09/05 00:18:57;;;;;;;;;;;22.70;72.30;;;;;;4187724;28;20056;-55
2023/09/05 00:21:38;;;;;;;5.75;5.25;;;22.70;72.40;;;;;;4173286;28;19958;-57
2023/09/05 00:24:27;;;;;;;10.00;5.90;;;22.70;72.70;;;;;;4184140;28;20169;-56
2023/09/05 00:27:11;;;;;;;6.13;5.45;;;22.60;72.10;;;;;;4189914;28;20507;-58
2023/09/05 00:29:53;;;;;;;6.22;5.28;;;22.70;72.30;;;;;;4190223;28;20133;-57
2023/09/05 00:32:34;;;;;;;5.43;4.93;;;22.60;72.40;;;;;;4190647;28;20044;-55
2023/09/05 00:35:17;;;;;;;7.07;6.43;;;22.60;72.30;;;;;;4175216;28;20047;-54
2023/09/05 00:37:58;;;;;;;5.57;5.10;;;22.60;72.50;;;;;;4173584;28;20048;-56
2023/09/05 00:40:40;;;;;;;6.25;5.50;;;22.60;72.90;;;;;;4169744;28;20506;-57
2023/09/05 00:43:21;;;;;;;6.50;5.63;;;22.60;73.20;;;;;;4173960;28;20056;-57
2023/09/05 00:46:06;;;;;;;5.53;5.13;;;22.60;73.30;;;;;;4173734;28;20541;-57
2023/09/05 00:48:48;;;;;;;7.03;5.57;;;22.60;73.40;;;;;;4178125;28;20055;-55
2023/09/05 00:51:31;;;;;;;5.50;5.10;;;22.60;73.30;;;;;;4189588;28;20051;-56
2023/09/05 00:54:13;;;;;;;5.22;4.82;;;22.60;73.20;;;;;;4176902;28;20197;-57
2023/09/05 00:56:54;;;;;;;5.80;5.30;;;22.60;73.30;;;;;;4190228;28;20056;-57
2023/09/05 00:59:35;;;;;;;;;;;22.60;73.10;;;;;;4189616;28;20511;-58
2023/09/05 01:02:16;;;;;;;5.85;5.03;;;22.60;73.30;;;;;;4189465;28;19947;-57
2023/09/05 01:04:57;;;;;;;6.13;5.72;;;22.60;73.90;;;;;;4188967;28;20047;-58
2023/09/05 01:07:55;;;;;;;5.68;5.20;;;22.60;73.70;;;;;;4189385;28;20056;-56
2023/09/05 01:10:52;;;;;;;5.60;4.85;;;22.60;73.20;;;;;;4188108;28;20060;-57
2023/09/05 01:13:37;;;;;;;5.65;5.15;;;22.60;73.40;;;;;;4188392;28;20731;-58
2023/09/05 01:16:18;;;;;;;5.90;5.30;;;22.60;73.50;;;;;;4173258;28;20428;-58
2023/09/05 01:19:01;;;;;;;5.93;5.15;;;22.60;73.50;;;;;;4179202;28;20250;-60
2023/09/05 01:21:51;;;;;;;5.80;5.30;;;22.50;73.40;;;;;;4189292;28;20064;-59
2023/09/05 01:24:35;;;;;;;6.27;5.60;;;22.50;73.00;;;;;;4189650;28;20055;-58
2023/09/05 01:27:22;;;;;;;6.13;5.53;;;22.50;73.10;;;;;;4189311;28;20290;-59
2023/09/05 01:30:05;;;;;;;8.18;5.88;;;22.50;73.20;;;;;;4187759;28;20056;-58
2023/09/05 01:32:47;;;;;;;6.40;5.90;;;22.50;73.40;;;;;;4189213;28;20071;-58
2023/09/05 01:35:28;;;;;;;6.80;6.20;;;22.50;73.30;;;;;;4189489;28;20660;-59
2023/09/05 01:38:09;;;;;;;6.60;6.00;;;22.50;73.30;;;;;;4189321;28;20170;-60
2023/09/05 01:40:52;;;;;;;7.57;6.07;;;22.40;74.10;;;;;;4188921;28;20177;-58
2023/09/05 01:43:32;;;;;;;6.28;5.68;;;22.40;73.20;;;;;;4189612;28;20145;-59
2023/09/05 01:46:13;;;;;;;6.07;5.57;;;22.40;73.10;;;;;;4188527;28;20097;-58
2023/09/05 01:48:54;;;;;;;6.20;5.80;;;22.40;73.00;;;;;;4200445;28;20060;-58
2023/09/05 01:51:35;;;;;;;7.53;5.93;;;22.40;73.20;;;;;;4189263;28;20064;-58
2023/09/05 01:54:16;;;;;;;6.60;5.97;;;22.40;73.20;;;;;;4188404;28;20067;-58
2023/09/05 01:56:58;;;;;;;6.15;5.60;;;22.40;73.20;;;;;;4188879;28;20181;-58
2023/09/05 01:59:39;;;;;;;5.97;5.45;;;22.40;73.20;;;;;;4188480;28;20756;-58
2023/09/05 02:02:20;;;;;;;6.53;5.88;;;22.40;73.20;;;;;;4187585;28;20071;-58
2023/09/05 02:05:04;;;;;;;5.95;5.55;;;22.30;73.10;;;;;;4189365;28;20079;-59
2023/09/05 02:07:45;;;;;;;7.45;6.10;;;22.30;73.10;;;;;;4189161;28;20071;-59
2023/09/05 02:10:26;;;;;;;6.75;6.15;;;22.30;73.10;;;;;;4176575;28;20044;-59
2023/09/05 02:13:09;;;;;;;6.85;5.43;;;22.30;73.20;;;;;;4188671;28;20056;-59
2023/09/05 02:15:50;;;;;;;6.38;5.88;;;22.30;73.20;;;;;;4188193;28;20066;-59
2023/09/05 02:18:31;;;;;;;6.20;5.68;;;22.30;74.00;;;;;;4171495;28;20094;-59
2023/09/05 02:21:12;;;;;;;6.28;5.80;;;22.30;73.20;;;;;;4172360;28;20103;-59
2023/09/05 02:23:53;;;;;;;7.97;5.80;;;22.30;73.20;;;;;;4172596;28;20404;-59
2023/09/05 02:26:34;;;;;;;6.75;6.07;;;22.30;73.40;;;;;;4172301;28;20176;-59
2023/09/05 02:29:16;;;;;;;6.07;5.68;;;22.30;73.30;;;;;;4170629;28;20095;-59
2023/09/05 02:31:57;;;;;;;6.15;5.57;;;22.30;73.10;;;;;;4170768;28;20171;-59
2023/09/05 02:34:38;;;;;;;6.43;5.75;;;22.20;72.90;;;;;;4173571;28;20059;-58
2023/09/05 02:37:20;;;;;;;5.80;5.30;;;22.20;72.80;;;;;;4188954;28;20059;-59
2023/09/05 02:40:00;;;;;;;;;;;22.20;72.60;;;;;;4181434;28;20055;-59
2023/09/05 02:42:41;;;;;;;7.05;6.45;;;22.20;72.90;;;;;;4188759;28;20016;-59
2023/09/05 02:45:24;;;;;;;6.50;6.00;;;22.20;73.60;;;;;;4187475;28;20062;-59
2023/09/05 02:48:06;;;;;;;6.72;6.20;;;22.20;73.20;;;;;;4188091;28;20400;-59
2023/09/05 02:50:46;;;;;;;6.85;5.90;;;22.20;73.20;;;;;;4188052;28;20060;-59
2023/09/05 02:53:27;;;;;;;7.05;6.35;;;22.20;73.10;;;;;;4188096;28;20059;-59
2023/09/05 02:56:08;;;;;;;6.15;5.60;;;22.20;73.20;;;;;;4180928;28;20047;-58
2023/09/05 02:58:49;;;;;;;7.07;6.40;;;22.10;73.20;;;;;;4184408;28;20059;-59
2023/09/05 03:01:32;;;;;;;6.00;5.40;;;22.10;72.90;;;;;;4187114;28;20125;-58
2023/09/05 03:04:15;;;;;;;7.20;6.20;;;22.10;72.60;;;;;;4170391;28;20146;-58
2023/09/05 03:06:56;;;;;;;7.05;6.45;;;22.10;72.60;;;;;;4169926;28;20098;-58
2023/09/05 03:09:37;;;;;;;7.28;6.63;;;22.10;73.60;;;;;;4171322;28;20060;-58
2023/09/05 03:12:18;;;;;;;6.85;6.13;;;22.10;72.70;;;;;;4177304;28;20052;-57
2023/09/05 03:15:00;;;;;;;8.70;7.32;;;22.10;72.70;;;;;;4187430;28;20047;-58
2023/09/05 03:17:43;;;;;;;7.43;6.82;;;22.00;73.40;;;;;;4186554;28;20051;-58
2023/09/05 03:20:25;;;;;;;6.75;6.05;;;22.00;73.30;;;;;;4186553;28;20125;-58
2023/09/05 03:23:07;;;;;;;7.35;6.18;;;22.00;72.60;;;;;;4181880;28;20071;-59
2023/09/05 03:25:48;;;;;;;7.70;6.88;;;22.00;72.50;;;;;;4187762;28;20060;-59
2023/09/05 03:28:40;;;;;;;6.68;6.18;;;22.00;72.60;;;;;;4188040;28;20055;-58
2023/09/05 03:31:24;;;;;;;7.32;6.82;;;22.00;72.30;;;;;;4185509;28;20055;-59
2023/09/05 03:34:06;;;;;;;;;;;22.00;72.90;;;;;;4181798;28;20052;-58
2023/09/05 03:36:48;;;;;;;7.18;6.57;;;22.00;73.10;;;;;;4170964;28;19974;-59
2023/09/05 03:39:29;;;;;;;7.18;6.47;;;21.90;73.80;;;;;;4170369;28;20689;-58
2023/09/05 03:42:10;;;;;;;7.75;6.55;;;21.90;73.30;;;;;;4178123;28;20051;-58
2023/09/05 03:44:51;;;;;;;10.20;6.80;;;21.90;73.20;;;;;;4187553;28;20556;-58
2023/09/05 03:47:32;;;;;;;;;;;21.90;73.10;;;;;;4188132;28;20404;-59
2023/09/05 03:50:18;;;;;;;7.75;7.10;;;21.90;73.40;;;;;;4187276;28;19967;-59
2023/09/05 03:52:59;;;;;;;7.47;6.78;;;21.90;73.80;;;;;;4185603;28;20182;-59
2023/09/05 03:55:40;;;;;;;8.20;7.45;;;21.90;73.40;;;;;;4186691;28;20154;-59
2023/09/05 03:58:21;;;;;;;10.45;6.80;;;21.90;73.40;;;;;;4187516;28;20105;-59
2023/09/05 04:01:03;;;;;;;;;;;21.90;73.30;;;;;;4187569;28;20051;-58
2023/09/05 04:03:45;;;;;;;8.10;7.35;;;21.90;73.50;;;;;;4169497;28;19939;-59
2023/09/05 04:06:28;;;;;;;7.90;7.22;;;21.80;74.10;;;;;;4170428;28;20055;-59
2023/09/05 04:09:09;;;;;;;7.47;6.78;;;21.80;73.70;;;;;;4169835;28;20048;-58
2023/09/05 04:11:49;;;;;;;7.60;6.97;;;21.80;73.70;;;;;;4185222;28;20097;-58
2023/09/05 04:14:30;;;;;;;8.63;7.57;;;21.80;73.60;;;;;;4187316;28;20051;-58
2023/09/05 04:17:11;;;;;;;;;;;21.80;73.60;;;;;;4187765;28;20118;-57
2023/09/05 04:19:54;;;;;;;8.40;7.60;;;21.80;73.80;;;;;;4186078;28;20125;-57
2023/09/05 04:22:36;;;;;;;8.80;7.18;;;21.80;74.30;;;;;;4184327;28;20132;-57
2023/09/05 04:25:17;;;;;;;7.65;7.03;;;21.80;73.70;;;;;;4186989;28;20056;-57
2023/09/05 04:27:59;;;;;;;8.35;7.55;;;21.80;73.60;;;;;;4184632;28;20404;-58
2023/09/05 04:30:39;;;;;;;7.60;6.90;;;21.80;73.50;;;;;;4183942;28;20510;-57
2023/09/05 04:33:20;;;;;;;;;;;21.80;73.40;;;;;;4185659;28;20205;-57
2023/09/05 04:36:01;;;;;;;8.98;7.25;;;21.80;73.50;;;;;;4187126;28;19927;-57
2023/09/05 04:38:44;;;;;;;9.35;7.72;;;21.70;74.10;;;;;;4185630;28;20181;-57
2023/09/05 04:41:25;;;;;;;8.68;7.28;;;21.70;73.80;;;;;;4186278;28;20522;-57
2023/09/05 04:44:07;;;;;;;8.48;7.68;;;21.70;73.90;;;;;;4186445;28;20059;-56
2023/09/05 04:46:48;;;;;;;8.07;7.13;;;21.70;73.80;;;;;;4170021;28;20079;-58
2023/09/05 04:49:29;;;;;;;8.15;7.38;;;21.70;73.80;;;;;;4170052;28;20048;-57
2023/09/05 04:52:11;;;;;;;8.02;7.22;;;21.70;73.80;;;;;;4180377;28;20597;-56
2023/09/05 04:54:54;;;;;;;8.05;7.35;;;21.70;73.80;;;;;;4186580;28;20051;-57
2023/09/05 04:57:36;;;;;;;8.02;7.30;;;21.70;73.70;;;;;;4187245;28;20051;-56
2023/09/05 05:00:18;;;;;;;7.72;7.13;;;21.70;73.80;;;;;;4187093;28;20101;-50
2023/09/05 05:02:59;;;;;;;8.48;7.63;;;21.70;73.90;;;;;;4169100;28;20098;-49
2023/09/05 05:05:40;;;;;;;7.55;6.75;;;21.70;73.80;;;;;;4177379;28;20055;-53
2023/09/05 05:08:21;;;;;;;8.25;7.47;;;21.70;73.80;;;;;;4187830;28;20048;-55
2023/09/05 05:11:05;;;;;;;11.95;7.60;;;21.80;73.90;;;;;;4189840;28;20465;-53
2023/09/05 05:13:46;;;;;;;8.48;6.93;;;21.80;73.70;;;;;;4177534;28;20511;-51
2023/09/05 05:16:27;;;;;;;8.15;7.45;;;21.80;73.50;;;;;;4189547;28;20101;-52
2023/09/05 05:19:09;;;;;;;7.68;6.70;;;21.70;73.10;;;;;;4189811;28;20186;-54
2023/09/05 05:21:51;;;;;;;15.07;8.18;;;21.70;73.10;;;;;;4189319;28;20541;-54
2023/09/05 05:24:32;;;;;;;12.07;7.80;;;21.70;73.10;;;;;;4189560;28;20078;-54
2023/09/05 05:27:14;;;;;;;10.48;7.60;;;21.70;73.20;;;;;;4189701;28;20125;-55
2023/09/05 05:29:55;;;;;;;8.70;7.35;;;21.70;74.10;;;;;;4186791;28;20445;-55
2023/09/05 05:32:36;;;;;;;8.23;7.40;;;21.70;73.40;;;;;;4189220;28;20097;-54
2023/09/05 05:35:17;;;;;;;8.57;7.72;;;21.70;73.50;;;;;;4188988;28;20073;-55
2023/09/05 05:37:58;;;;;;;11.82;8.02;;;21.60;73.50;;;;;;4188833;28;20059;-54
2023/09/05 05:40:39;;;;;;;8.23;7.43;;;21.60;73.60;;;;;;4189029;28;20415;-55
2023/09/05 05:43:22;;;;;;;10.32;8.30;;;21.60;73.60;;;;;;4188836;28;20055;-55
2023/09/05 05:46:03;;;;;;;9.40;8.48;;;21.60;73.60;;;;;;4189199;28;20097;-55
2023/09/05 05:48:44;;;;;;;10.35;8.23;;;21.60;74.70;;;;;;4172727;28;20410;-56
2023/09/05 05:51:26;;;;;;;8.88;8.07;;;21.60;73.60;;;;;;4172469;28;20552;-57
2023/09/05 05:54:08;;;;;;;8.90;8.00;;;21.60;73.70;;;;;;4183085;28;20174;-55
2023/09/05 05:56:48;;;;;;;;;;;21.50;74.50;;;;;;4183645;28;20059;-56
2023/09/05 05:59:31;;;;;;;13.05;7.70;;;21.60;76.80;;;;;;4189523;28;19975;-57
2023/09/05 06:02:12;;;;;;;10.60;8.10;;;21.60;79.40;;;;;;4187530;28;20052;-54
2023/09/05 06:04:54;;;;;;;11.07;8.07;;;21.60;78.40;;;;;;4188208;28;20051;-56
2023/09/05 06:07:35;;;;;;;;;;;21.50;78.60;;;;;;4189134;28;20051;-54
2023/09/05 06:10:16;;;;;;;10.13;8.52;;;21.50;77.70;;;;;;4189230;28;19932;-53
2023/09/05 06:12:57;;;;;;;13.55;8.50;;;21.50;78.60;;;;;;4186640;28;20487;-52
2023/09/05 06:15:40;;;;;;;10.70;8.80;;;21.50;78.50;;;;;;4188952;28;20542;-52
2023/09/05 06:18:21;;;;;;;9.40;8.27;;;21.50;78.20;;;;;;4187896;28;20141;-55
2023/09/05 06:21:02;;;;;;;8.93;7.55;;;21.50;78.10;;;;;;4188831;28;20059;-55
2023/09/05 06:23:43;;;;;;;9.55;8.57;;;21.50;78.60;;;;;;4186259;28;20052;-55
2023/09/05 06:26:24;;;;;;;10.85;7.95;;;21.50;77.60;;;;;;4173062;28;20059;-59
2023/09/05 06:29:05;;;;;;;11.68;9.10;;;21.50;77.60;;;;;;4183963;28;20063;-54
2023/09/05 06:31:48;;;;;;;9.10;8.05;;;21.50;77.60;;;;;;4188370;28;20064;-54
2023/09/05 06:34:31;;;;;;;10.45;7.93;;;21.50;77.50;;;;;;4187011;28;20198;-54
2023/09/05 06:37:11;;;;;;;8.93;8.10;;;21.50;77.60;;;;;;4187089;28;20056;-53
2023/09/05 06:39:52;;;;;;;10.75;9.07;;;21.50;77.70;;;;;;4188345;28;20056;-55
2023/09/05 06:42:33;;;;;;;13.95;8.63;;;21.50;77.70;;;;;;4187535;28;20063;-52
2023/09/05 06:45:15;;;;;;;9.40;8.50;;;21.50;77.70;;;;;;4188282;28;20131;-54
2023/09/05 06:47:57;;;;;;;9.23;8.00;;;21.50;77.40;;;;;;4172237;28;20389;-55
2023/09/05 06:50:39;;;;;;;10.02;8.57;;;21.60;77.10;;;;;;4183485;28;20403;-53
2023/09/05 06:53:20;;;;;;;9.80;7.90;;;21.60;77.10;;;;;;4186733;28;20063;-52
2023/09/05 06:56:00;;;;;;;12.77;8.75;;;21.60;77.30;;;;;;4187394;28;20043;-54
2023/09/05 06:58:42;;;;;;;14.25;8.68;;;21.60;77.50;;;;;;4187366;28;20055;-55
2023/09/05 07:01:23;;;;;;;9.20;8.27;;;21.60;77.70;;;;;;4186651;28;20055;-54
2023/09/05 07:04:06;;;;;;;9.07;8.27;;;21.60;77.80;;;;;;4187669;28;20071;-55
2023/09/05 07:06:48;;;;;;;9.85;8.45;;;21.60;77.80;;;;;;4182827;28;20055;-55
2023/09/05 07:09:29;;;;;;;9.55;8.65;;;21.60;77.80;;;;;;4187952;28;20182;-54
2023/09/05 07:12:10;;;;;;;9.50;8.35;;;21.60;77.80;;;;;;4187461;28;20394;-55
2023/09/05 07:14:52;;;;;;;;;;;21.60;77.80;;;;;;4188172;28;20059;-54
2023/09/05 07:17:32;;;;;;;10.18;8.60;;;21.60;77.80;;;;;;4185839;28;19958;-50
2023/09/05 07:20:15;;;;;;;9.43;8.50;;;21.60;78.10;;;;;;4188144;28;20510;-51
2023/09/05 07:22:56;;;;;;;9.18;8.27;;;21.60;78.30;;;;;;4179475;28;20419;-52
2023/09/05 07:25:38;;;;;;;9.30;8.13;;;21.60;78.60;;;;;;4187665;28;20047;-48
2023/09/05 07:28:20;;;;;;;11.27;8.50;;;21.60;78.70;;;;;;4184812;28;20073;-49
2023/09/05 07:31:01;;;;;;;9.02;8.25;;;21.70;78.80;;;;;;4185850;28;20102;-53
2023/09/05 07:33:41;;;;;;;9.45;8.00;;;21.70;79.50;;;;;;4186469;28;20185;-54
2023/09/05 07:36:24;;;;;;;9.35;8.40;;;21.70;78.60;;;;;;4172417;28;20055;-57
2023/09/05 07:39:05;;;;;;;8.60;7.80;;;21.80;78.80;;;;;;4177681;28;20059;-56
2023/09/05 07:41:47;;;;;;;9.30;8.20;;;21.80;79.00;;;;;;4176404;28;20059;-58
2023/09/05 07:44:28;;;;;;;8.82;7.93;;;21.80;79.00;;;;;;4187789;28;20051;-56
2023/09/05 07:47:09;;;;;;;;;;;21.90;79.30;;;;;;4171766;28;20064;-54
2023/09/05 07:49:51;;;;;;;9.68;8.77;;;21.90;79.20;;;;;;4177900;28;20287;-56
2023/09/05 07:52:34;;;;;;;8.48;7.70;;;21.90;79.40;;;;;;4187613;28;20086;-53
2023/09/05 07:55:17;;;;;;;10.45;8.25;;;22.00;79.60;;;;;;4186518;28;20153;-53
2023/09/05 07:57:58;;;;;;;9.55;8.63;;;22.00;79.80;;;;;;4186643;28;20078;-53
2023/09/05 08:00:42;;;;;;;9.18;8.25;;;22.10;79.80;;;;;;4186955;28;20098;-58
2023/09/05 08:03:25;;;;;;;10.80;8.50;;;22.10;79.90;;;;;;4174024;28;20056;-52
2023/09/05 08:06:06;;;;;;;8.55;7.85;;;22.10;80.00;;;;;;4177649;28;20393;-53
2023/09/05 08:08:50;;;;;;;10.68;8.30;;;22.20;79.80;;;;;;4186544;28;20423;-50
2023/09/05 08:11:31;;;;;;;11.18;8.00;;;22.20;79.80;;;;;;4187108;28;20514;-52
2023/09/05 08:14:12;;;;;;;8.68;7.70;;;22.30;79.70;;;;;;4185917;28;20614;-50
2023/09/05 08:16:53;;;;;;;9.23;8.27;;;22.30;79.60;;;;;;4179746;28;20128;-56
2023/09/05 08:19:34;;;;;;;8.68;7.22;;;22.30;79.50;;;;;;4195070;28;20063;-53
2023/09/05 08:22:17;;;;;;;8.05;7.35;;;22.30;79.60;;;;;;4185604;28;20054;-54
2023/09/05 08:24:59;;;;;;;8.55;7.72;;;22.40;79.50;;;;;;4187124;28;20125;-53
2023/09/05 08:27:41;;;;;;;8.07;7.28;;;22.40;79.70;;;;;;4185486;28;20186;-55
2023/09/05 08:30:24;;;;;;;10.50;7.95;;;22.40;79.80;;;;;;4187574;28;20059;-55
2023/09/05 08:33:05;;;;;;;8.40;7.57;;;22.50;79.80;;;;;;4169422;28;20067;-55
2023/09/05 08:35:46;;;;;;;8.32;7.57;;;22.50;79.70;;;;;;4170066;28;20055;-52
2023/09/05 08:38:27;;;;;;;8.40;7.70;;;22.60;79.80;;;;;;4156397;28;20079;-53
2023/09/05 08:41:10;;;;;;;;;;;22.60;79.80;;;;;;4176638;28;20047;-51
2023/09/05 08:43:52;;;;;;;8.60;7.43;;;22.60;79.60;;;;;;4190247;28;19927;-55
2023/09/05 08:46:37;;;;;;;11.48;7.38;;;22.70;79.60;;;;;;4189908;28;20411;-53
2023/09/05 08:49:18;;;;;;;8.23;7.50;;;22.70;79.80;;;;;;4189928;28;20101;-55
2023/09/05 08:52:03;;;;;;;8.25;7.55;;;22.70;79.80;;;;;;4189698;28;20190;-53
2023/09/05 08:54:44;;;;;;;8.23;7.43;;;22.70;80.00;;;;;;4190127;28;20056;-51
2023/09/05 08:57:29;;;;;;;;;;;22.80;80.10;;;;;;4189382;28;20108;-56
2023/09/05 09:00:11;;;;;;;8.05;7.25;;;22.80;79.70;;;;;;4189721;28;19930;-55
2023/09/05 09:02:53;;;;;;;12.38;8.25;;;22.80;79.70;;;;;;4187392;28;20182;-54
2023/09/05 09:05:36;;;;;;;12.02;8.07;;;22.90;80.20;;;;;;4189679;28;20047;-55
2023/09/05 09:08:18;;;;;;;8.90;8.07;;;22.90;80.10;;;;;;4172900;28;20091;-56
2023/09/05 09:11:06;;;;;;;8.60;7.80;;;23.00;80.20;;;;;;4179527;28;20056;-59
2023/09/05 09:13:50;;;;;;;9.05;8.25;;;23.00;80.30;;;;;;4189341;28;20617;-57
2023/09/05 09:16:31;;;;;;;10.40;8.43;;;23.10;80.20;;;;;;4188007;28;20056;-49
2023/09/05 09:19:15;;;;;;;8.77;7.95;;;23.10;80.00;;;;;;4189594;28;20090;-53
2023/09/05 09:22:01;;;;;;;9.70;7.82;;;23.10;80.70;;;;;;4189387;28;20182;-54
2023/09/05 09:24:42;;;;;;;8.50;7.70;;;23.20;80.90;;;;;;4188647;28;20415;-54
2023/09/05 09:27:24;;;;;;;14.52;8.50;;;23.30;80.30;;;;;;4189194;28;20515;-53
2023/09/05 09:30:11;;;;;;;8.75;7.50;;;23.30;80.30;;;;;;4188732;28;20052;-54
2023/09/05 09:32:52;;;;;;;8.07;7.30;;;23.30;80.50;;;;;;4188848;28;20047;-59
2023/09/05 09:35:34;;;;;;;8.20;7.40;;;23.40;80.40;;;;;;4186659;28;20178;-59
2023/09/05 09:38:14;;;;;;;;;;;23.40;80.20;;;;;;4172501;28;20408;-59
2023/09/05 09:40:56;;;;;;;8.30;7.50;;;23.40;80.20;;;;;;4171580;28;19928;-59
2023/09/05 09:43:37;;;;;;;8.35;7.55;;;23.40;80.00;;;;;;4172254;28;20067;-59
2023/09/05 09:46:22;;;;;;;7.43;6.80;;;23.50;79.60;;;;;;4186876;28;20059;-59
2023/09/05 09:49:06;;;;;;;7.47;6.82;;;23.50;79.00;;;;;;4189239;28;20507;-59
2023/09/05 09:51:53;;;;;;;8.10;7.28;;;23.60;79.00;;;;;;4188732;28;20407;-59
2023/09/05 09:54:38;;;;;;;7.88;7.07;;;23.60;78.90;;;;;;4186664;28;20048;-59
2023/09/05 09:57:27;;;;;;;7.40;6.05;;;23.70;78.90;;;;;;4189002;28;20115;-60
2023/09/05 10:00:22;;;;;;;6.75;6.00;;;23.70;78.30;;;;;;4187842;28;20052;-60
2023/09/05 10:03:08;;;;;;;6.28;5.65;;;23.70;77.80;;;;;;4186863;28;20173;-59
2023/09/05 10:05:50;;;;;;;6.45;5.85;;;23.80;77.70;;;;;;4187272;28;20052;-59
2023/09/05 10:08:33;;;;;;;6.63;4.82;;;23.80;77.80;;;;;;4187482;28;20055;-59
2023/09/05 10:11:15;;;;;;;5.55;5.13;;;23.90;77.60;;;;;;4187175;28;20062;-59
2023/09/05 10:13:58;;;;;;;6.20;5.53;;;23.90;77.40;;;;;;4188575;28;20097;-57
2023/09/05 10:16:42;;;;;;;6.35;5.75;;;23.90;77.20;;;;;;4187078;28;20105;-59
2023/09/05 10:19:26;;;;;;;5.93;5.32;;;24.00;77.20;;;;;;4186957;28;20190;-59
2023/09/05 10:22:10;;;;;;;6.10;5.38;;;24.00;77.40;;;;;;4171798;28;20117;-59
2023/09/05 10:24:52;;;;;;;11.15;4.97;;;24.10;77.50;;;;;;4172528;28;20047;-59
2023/09/05 10:27:33;;;;;;;4.75;4.45;;;24.10;77.30;;;;;;4185624;28;20499;-59
2023/09/05 10:30:14;;;;;;;7.65;5.38;;;24.20;76.90;;;;;;4188662;28;20047;-59
2023/09/05 10:32:59;;;;;;;7.53;4.60;;;24.20;76.50;;;;;;4188707;28;20101;-59
2023/09/05 10:35:45;;;;;;;4.20;3.75;;;24.30;76.00;;;;;;4187272;28;20494;-59
2023/09/05 10:38:30;;;;;;;4.95;3.50;;;24.30;76.00;;;;;;4172678;28;20056;-59
2023/09/05 10:41:36;;;;;;;4.03;3.65;;;24.30;75.60;;;;;;4188326;28;20056;-59
2023/09/05 10:44:17;;;;;;;3.88;3.47;;;24.40;75.70;;;;;;4187660;28;20051;-59
2023/09/05 10:47:18;;;;;;;;;;;24.40;75.40;;;;;;4172453;28;20450;-59
2023/09/05 10:50:00;;;;;;;3.63;3.33;;;24.50;75.30;;;;;;4177622;28;19963;-59
2023/09/05 10:52:44;;;;;;;3.63;3.30;;;24.50;75.10;;;;;;4187863;28;20059;-59
2023/09/05 10:55:39;;;;;;;3.47;3.22;;;24.50;75.30;;;;;;4187301;28;20055;-59
2023/09/05 10:58:45;;;;;;;5.93;4.15;;;24.50;74.60;;;;;;4171126;28;20142;-59
2023/09/05 11:01:56;;;;;;;3.30;3.00;;;24.60;75.10;;;;;;4170481;28;20060;-59
2023/09/05 11:04:39;;;;;;;5.35;3.45;;;24.60;75.00;;;;;;4179373;28;20051;-59
2023/09/05 11:07:21;;;;;;;3.40;3.20;;;24.60;74.60;;;;;;4187646;28;20129;-61
2023/09/05 11:10:03;;;;;;;3.20;3.00;;;24.70;74.30;;;;;;4183641;28;20056;-58
2023/09/05 11:12:44;;;;;;;4.78;3.38;;;24.70;74.20;;;;;;4169937;28;20114;-59
2023/09/05 11:15:30;;;;;;;4.80;2.95;;;24.70;74.40;;;;;;4186529;28;20101;-60
2023/09/05 11:18:14;;;;;;;4.55;3.13;;;24.80;73.60;;;;;;4183694;28;20049;-60
2023/09/05 11:20:55;;;;;;;3.85;3.55;;;24.80;74.00;;;;;;4181551;28;20051;-60
2023/09/05 11:23:36;;;;;;;3.97;3.63;;;24.90;73.90;;;;;;4187775;28;20451;-60
2023/09/05 11:26:19;;;;;;;2.95;2.75;;;25.00;73.40;;;;;;4170534;28;20040;-59
2023/09/05 11:29:02;;;;;;;2.85;2.65;;;25.00;73.20;;;;;;4170826;28;20179;-59
2023/09/05 11:31:43;;;;;;;5.18;3.42;;;25.00;74.10;;;;;;4168961;28;20051;-62
2023/09/05 11:34:25;;;;;;;3.58;2.70;;;25.00;73.10;;;;;;4176000;28;20101;-57
2023/09/05 11:37:06;;;;;;;4.60;2.78;;;25.10;73.00;;;;;;4186805;28;20059;-57
2023/09/05 11:39:49;;;;;;;2.95;2.63;;;25.10;72.50;;;;;;4186583;28;20182;-58
2023/09/05 11:42:31;;;;;;;4.15;2.22;;;25.20;72.20;;;;;;4186431;28;20047;-58
2023/09/05 11:45:19;;;;;;;3.45;2.60;;;25.20;71.90;;;;;;4187310;28;20070;-60
2023/09/05 11:48:02;;;;;;;6.50;2.75;;;25.20;71.90;;;;;;4187434;28;20055;-58
2023/09/05 11:50:45;;;;;;;2.95;2.10;;;25.20;71.00;;;;;;4187828;28;20055;-58
2023/09/05 11:53:29;;;;;;;4.57;2.53;;;25.30;70.60;;;;;;4187519;28;20117;-57
2023/09/05 11:56:10;;;;;;;2.92;2.72;;;25.30;71.00;;;;;;4186990;28;20048;-56
2023/09/05 11:58:52;;;;;;;2.90;2.70;;;25.40;71.00;;;;;;4187277;28;20097;-57
2023/09/05 12:01:33;;;;;;;2.78;2.53;;;25.40;71.00;;;;;;4187761;28;20190;-57
2023/09/05 12:04:16;;;;;;;2.78;2.47;;;25.40;71.20;;;;;;4187640;28;20546;-57
2023/09/05 12:06:57;;;;;;;3.95;2.30;;;25.50;70.70;;;;;;4187017;28;20097;-57
2023/09/05 12:09:39;;;;;;;2.85;2.50;;;25.50;70.00;;;;;;4186889;28;20055;-59
2023/09/05 12:12:21;;;;;;;2.60;2.40;;;25.50;70.00;;;;;;4170893;28;20130;-59
2023/09/05 12:15:04;;;;;;;3.17;2.38;;;25.60;70.20;;;;;;4170336;28;20158;-58
2023/09/05 12:17:48;;;;;;;3.08;2.40;;;25.60;70.10;;;;;;4169832;28;20482;-58
2023/09/05 12:20:29;;;;;;;2.55;2.38;;;25.60;70.00;;;;;;4171068;28;20091;-58
2023/09/05 12:23:10;;;;;;;;;;;25.60;70.00;;;;;;4187242;28;20051;-59
2023/09/05 12:25:52;;;;;;;2.70;2.00;;;25.70;70.00;;;;;;4183471;28;19975;-51
2023/09/05 12:28:38;;;;;;;3.10;2.40;;;25.70;69.90;;;;;;4184964;28;20125;-55
2023/09/05 12:31:21;;;;;;;5.50;2.10;;;25.70;69.30;;;;;;4180921;28;20044;-50
2023/09/05 12:34:02;;;;;;;4.90;2.67;;;25.80;68.70;;;;;;4169650;28;20051;-43
2023/09/05 12:36:43;;;;;;;3.70;2.13;;;25.80;68.60;;;;;;4170795;28;20052;-50
2023/09/05 12:39:23;;;;;;;4.75;2.75;;;25.90;68.80;;;;;;4170162;28;20416;-46
2023/09/05 12:42:04;;;;;;;;;;;25.90;68.90;;;;;;4185700;28;20125;-43
2023/09/05 12:44:45;;;;;;;2.33;2.15;;;25.90;68.40;;;;;;4181807;28;19981;-44
2023/09/05 12:47:28;;;;;;;3.95;2.58;;;25.90;68.80;;;;;;4186203;28;20499;-48
2023/09/05 12:50:14;;;;;;;2.35;2.25;;;25.90;68.90;;;;;;4186744;28;20113;-51
2023/09/05 12:52:56;;;;;;;2.85;2.63;;;26.00;69.20;;;;;;4186536;28;20052;-47
2023/09/05 12:55:38;;;;;;;3.40;2.35;;;26.00;69.60;;;;;;4186857;28;20055;-46
2023/09/05 12:58:19;;;;;;;2.88;2.67;;;26.00;69.20;;;;;;4186149;28;20416;-49
2023/09/05 13:01:00;;;;;;;6.53;2.50;;;26.00;69.40;;;;;;4185318;28;20499;-49
2023/09/05 13:03:43;;;;;;;3.65;2.47;;;26.10;69.60;;;;;;4186893;28;20052;-46
2023/09/05 13:06:24;;;;;;;4.75;2.47;;;26.10;69.10;;;;;;4186482;28;20097;-48
2023/09/05 13:09:05;;;;;;;4.85;2.60;;;26.10;69.20;;;;;;4186395;28;20178;-47
2023/09/05 13:11:47;;;;;;;7.55;2.33;;;26.10;69.00;;;;;;4170018;28;20067;-45
2023/09/05 13:14:28;;;;;;;7.50;2.55;;;26.20;69.00;;;;;;4180449;28;20068;-45
2023/09/05 13:17:09;;;;;;;2.83;2.63;;;26.20;69.00;;;;;;4170036;28;20124;-49
2023/09/05 13:19:51;;;;;;;3.40;2.35;;;26.20;69.00;;;;;;4169741;28;20511;-47
2023/09/05 13:22:32;;;;;;;4.45;3.10;;;26.20;68.80;;;;;;4180278;28;20048;-47
2023/09/05 13:25:15;;;;;;;3.33;2.83;;;26.20;68.80;;;;;;4186795;28;20085;-50
2023/09/05 13:27:56;;;;;;;4.35;2.92;;;26.30;68.50;;;;;;4186723;28;20059;-46
2023/09/05 13:30:38;;;;;;;2.97;2.53;;;26.30;67.80;;;;;;4177008;28;20134;-49
2023/09/05 13:33:18;;;;;;;4.22;2.80;;;26.30;68.30;;;;;;4189400;28;20174;-51
2023/09/05 13:36:01;;;;;;;5.72;2.58;;;26.30;68.60;;;;;;4189790;28;20051;-49
2023/09/05 13:38:42;;;;;;;3.10;2.90;;;26.40;68.70;;;;;;4189329;28;20055;-48
2023/09/05 13:41:23;;;;;;;3.00;2.80;;;26.40;68.30;;;;;;4189451;28;20055;-46
2023/09/05 13:44:05;;;;;;;4.57;3.38;;;26.40;68.70;;;;;;4189355;28;20186;-48
2023/09/05 13:46:47;;;;;;;3.63;2.80;;;26.50;68.90;;;;;;4187640;28;20154;-47
2023/09/05 13:49:28;;;;;;;2.40;2.30;;;26.50;68.30;;;;;;4180363;28;20380;-47
2023/09/05 13:52:12;;;;;;;2.60;2.40;;;26.60;68.20;;;;;;4189135;28;20052;-50
2023/09/05 13:54:53;;;;;;;2.80;2.60;;;26.60;68.70;;;;;;4172902;28;20052;-51
2023/09/05 13:57:34;;;;;;;;;;;26.70;68.70;;;;;;4172226;28;20154;-49
2023/09/05 14:00:17;;;;;;;3.38;2.40;;;26.70;68.20;;;;;;4172566;28;20005;-47
2023/09/05 14:02:58;;;;;;;2.90;2.70;;;26.70;68.50;;;;;;4171687;28;20130;-46
2023/09/05 14:05:40;;;;;;;3.08;2.63;;;26.80;68.40;;;;;;4180033;28;20514;-45
2023/09/05 14:08:22;;;;;;;2.50;2.30;;;26.80;68.10;;;;;;4175630;28;20056;-53